sensor_id;sensor_type;location;lat;lon;timestamp;P1;durP1;ratioP1;P2;durP2;ratioP2
12519;SDS011;6325;49.540;8.364;2022-11-03T00:01:12;3.85;;;2.58;;
12519;SDS011;6325;49.540;8.364;2022-11-03T00:03:39;3.75;;;2.60;;
12519;SDS011;6325;49.540;8.364;2022-11-03T00:06:06;3.65;;;2.45;;
12519;SDS011;6325;49.540;8.364;2022-11-03T00:08:34;4.30;;;2.70;;
12519;SDS011;6325;49.540;8.364;2022-11-03T00:11:03;4.47;;;2.63;;
12519;SDS011;6325;49.540;8.364;2022-11-03T00:13:32;3.35;;;2.70;;
12519;SDS011;6325;49.540;8.364;2022-11-03T00:15:59;4.18;;;2.47;;
12519;SDS011;6325;49.540;8.364;2022-11-03T00:18:28;3.17;;;2.20;;
12519;SDS011;6325;49.540;8.364;2022-11-03T00:20:55;4.97;;;2.80;;
12519;SDS011;6325;49.540;8.364;2022-11-03T00:23:24;4.93;;;2.70;;
12519;SDS011;6325;49.540;8.364;2022-11-03T00:25:52;2.88;;;2.42;;
12519;SDS011;6325;49.540;8.364;2022-11-03T00:28:19;2.88;;;2.20;;
12519;SDS011;6325;49.540;8.364;2022-11-03T00:30:46;4.10;;;2.50;;
12519;SDS011;6325;49.540;8.364;2022-11-03T00:33:13;3.70;;;2.53;;
12519;SDS011;6325;49.540;8.364;2022-11-03T00:35:42;4.13;;;2.60;;
12519;SDS011;6325;49.540;8.364;2022-11-03T00:38:08;6.93;;;3.10;;
12519;SDS011;6325;49.540;8.364;2022-11-03T00:40:35;3.28;;;2.03;;
12519;SDS011;6325;49.540;8.364;2022-11-03T00:43:02;5.70;;;2.83;;
12519;SDS011;6325;49.540;8.364;2022-11-03T00:45:29;3.33;;;2.50;;
12519;SDS011;6325;49.540;8.364;2022-11-03T00:47:56;4.60;;;2.55;;
12519;SDS011;6325;49.540;8.364;2022-11-03T00:50:42;2.70;;;2.13;;
12519;SDS011;6325;49.540;8.364;2022-11-03T00:53:09;3.77;;;2.40;;
12519;SDS011;6325;49.540;8.364;2022-11-03T00:55:36;5.10;;;3.65;;
12519;SDS011;6325;49.540;8.364;2022-11-03T00:58:02;7.05;;;3.92;;
12519;SDS011;6325;49.540;8.364;2022-11-03T01:00:30;3.95;;;2.95;;
12519;SDS011;6325;49.540;8.364;2022-11-03T01:02:57;3.53;;;2.78;;
12519;SDS011;6325;49.540;8.364;2022-11-03T01:05:24;5.37;;;3.20;;
12519;SDS011;6325;49.540;8.364;2022-11-03T01:08:10;8.43;;;3.88;;
12519;SDS011;6325;49.540;8.364;2022-11-03T01:10:37;6.53;;;4.20;;
12519;SDS011;6325;49.540;8.364;2022-11-03T01:13:24;6.47;;;4.05;;
12519;SDS011;6325;49.540;8.364;2022-11-03T01:15:50;6.57;;;3.83;;
12519;SDS011;6325;49.540;8.364;2022-11-03T01:18:17;6.10;;;3.90;;
12519;SDS011;6325;49.540;8.364;2022-11-03T01:20:44;5.30;;;3.53;;
12519;SDS011;6325;49.540;8.364;2022-11-03T01:23:12;4.77;;;3.20;;
12519;SDS011;6325;49.540;8.364;2022-11-03T01:25:39;6.97;;;3.60;;
12519;SDS011;6325;49.540;8.364;2022-11-03T01:28:06;5.90;;;3.65;;
12519;SDS011;6325;49.540;8.364;2022-11-03T01:30:33;7.05;;;3.90;;
12519;SDS011;6325;49.540;8.364;2022-11-03T01:33:00;6.53;;;3.53;;
12519;SDS011;6325;49.540;8.364;2022-11-03T01:35:27;6.50;;;3.80;;
12519;SDS011;6325;49.540;8.364;2022-11-03T01:37:54;7.13;;;4.10;;
12519;SDS011;6325;49.540;8.364;2022-11-03T01:40:23;6.90;;;3.72;;
12519;SDS011;6325;49.540;8.364;2022-11-03T01:42:50;4.90;;;3.58;;
12519;SDS011;6325;49.540;8.364;2022-11-03T01:45:17;4.87;;;3.07;;
12519;SDS011;6325;49.540;8.364;2022-11-03T01:47:44;4.47;;;3.20;;
12519;SDS011;6325;49.540;8.364;2022-11-03T01:50:13;5.13;;;3.30;;
12519;SDS011;6325;49.540;8.364;2022-11-03T01:52:43;4.85;;;3.30;;
12519;SDS011;6325;49.540;8.364;2022-11-03T01:55:14;5.75;;;3.60;;
12519;SDS011;6325;49.540;8.364;2022-11-03T01:57:44;4.87;;;3.00;;
12519;SDS011;6325;49.540;8.364;2022-11-03T02:00:15;3.47;;;2.90;;
12519;SDS011;6325;49.540;8.364;2022-11-03T02:02:43;5.10;;;2.90;;
12519;SDS011;6325;49.540;8.364;2022-11-03T02:05:10;5.80;;;3.03;;
12519;SDS011;6325;49.540;8.364;2022-11-03T02:07:42;5.32;;;3.40;;
12519;SDS011;6325;49.540;8.364;2022-11-03T02:10:12;4.10;;;2.97;;
12519;SDS011;6325;49.540;8.364;2022-11-03T02:12:39;3.45;;;2.95;;
12519;SDS011;6325;49.540;8.364;2022-11-03T02:15:10;3.85;;;2.80;;
12519;SDS011;6325;49.540;8.364;2022-11-03T02:17:39;3.33;;;2.50;;
12519;SDS011;6325;49.540;8.364;2022-11-03T02:20:08;3.50;;;2.65;;
12519;SDS011;6325;49.540;8.364;2022-11-03T02:22:42;4.90;;;2.90;;
12519;SDS011;6325;49.540;8.364;2022-11-03T02:25:40;3.17;;;2.53;;
12519;SDS011;6325;49.540;8.364;2022-11-03T02:28:09;2.55;;;2.35;;
12519;SDS011;6325;49.540;8.364;2022-11-03T02:30:38;3.20;;;2.38;;
12519;SDS011;6325;49.540;8.364;2022-11-03T02:33:10;3.15;;;2.53;;
12519;SDS011;6325;49.540;8.364;2022-11-03T02:35:47;3.83;;;2.80;;
12519;SDS011;6325;49.540;8.364;2022-11-03T02:38:18;4.85;;;2.72;;
12519;SDS011;6325;49.540;8.364;2022-11-03T02:40:50;4.68;;;2.85;;
12519;SDS011;6325;49.540;8.364;2022-11-03T02:43:19;3.05;;;2.30;;
12519;SDS011;6325;49.540;8.364;2022-11-03T02:45:49;4.32;;;2.75;;
12519;SDS011;6325;49.540;8.364;2022-11-03T02:48:17;3.37;;;2.47;;
12519;SDS011;6325;49.540;8.364;2022-11-03T02:50:45;4.53;;;2.58;;
12519;SDS011;6325;49.540;8.364;2022-11-03T02:53:14;3.63;;;2.50;;
12519;SDS011;6325;49.540;8.364;2022-11-03T02:55:44;3.80;;;2.50;;
12519;SDS011;6325;49.540;8.364;2022-11-03T02:58:18;4.10;;;2.65;;
12519;SDS011;6325;49.540;8.364;2022-11-03T03:00:51;3.70;;;2.60;;
12519;SDS011;6325;49.540;8.364;2022-11-03T03:03:21;4.65;;;2.80;;
12519;SDS011;6325;49.540;8.364;2022-11-03T03:05:55;3.47;;;2.40;;
12519;SDS011;6325;49.540;8.364;2022-11-03T03:08:24;6.60;;;3.20;;
12519;SDS011;6325;49.540;8.364;2022-11-03T03:10:53;6.10;;;3.15;;
12519;SDS011;6325;49.540;8.364;2022-11-03T03:13:22;6.00;;;3.13;;
12519;SDS011;6325;49.540;8.364;2022-11-03T03:15:54;5.63;;;2.85;;
12519;SDS011;6325;49.540;8.364;2022-11-03T03:18:33;5.60;;;3.03;;
12519;SDS011;6325;49.540;8.364;2022-11-03T03:21:10;3.63;;;2.80;;
12519;SDS011;6325;49.540;8.364;2022-11-03T03:23:41;3.20;;;2.30;;
12519;SDS011;6325;49.540;8.364;2022-11-03T03:26:17;4.32;;;2.85;;
12519;SDS011;6325;49.540;8.364;2022-11-03T03:28:50;3.28;;;2.30;;
12519;SDS011;6325;49.540;8.364;2022-11-03T03:31:21;4.23;;;2.60;;
12519;SDS011;6325;49.540;8.364;2022-11-03T03:33:49;3.63;;;2.40;;
12519;SDS011;6325;49.540;8.364;2022-11-03T03:36:19;3.72;;;2.50;;
12519;SDS011;6325;49.540;8.364;2022-11-03T03:38:49;4.35;;;2.50;;
12519;SDS011;6325;49.540;8.364;2022-11-03T03:41:22;4.82;;;2.60;;
12519;SDS011;6325;49.540;8.364;2022-11-03T03:43:52;3.42;;;2.60;;
12519;SDS011;6325;49.540;8.364;2022-11-03T03:46:21;5.33;;;2.93;;
12519;SDS011;6325;49.540;8.364;2022-11-03T03:48:52;6.43;;;3.50;;
12519;SDS011;6325;49.540;8.364;2022-11-03T03:51:21;5.63;;;2.90;;
12519;SDS011;6325;49.540;8.364;2022-11-03T03:53:51;5.00;;;3.08;;
12519;SDS011;6325;49.540;8.364;2022-11-03T03:56:19;5.20;;;2.80;;
12519;SDS011;6325;49.540;8.364;2022-11-03T03:58:52;4.73;;;3.37;;
12519;SDS011;6325;49.540;8.364;2022-11-03T04:01:21;6.07;;;3.22;;
12519;SDS011;6325;49.540;8.364;2022-11-03T04:03:48;4.30;;;2.97;;
12519;SDS011;6325;49.540;8.364;2022-11-03T04:06:15;5.85;;;2.88;;
12519;SDS011;6325;49.540;8.364;2022-11-03T04:08:42;4.37;;;2.93;;
12519;SDS011;6325;49.540;8.364;2022-11-03T04:11:09;7.65;;;3.50;;
12519;SDS011;6325;49.540;8.364;2022-11-03T04:13:55;4.65;;;3.25;;
12519;SDS011;6325;49.540;8.364;2022-11-03T04:16:40;5.20;;;3.20;;
12519;SDS011;6325;49.540;8.364;2022-11-03T04:19:24;4.13;;;3.20;;
12519;SDS011;6325;49.540;8.364;2022-11-03T04:22:17;4.72;;;3.22;;
12519;SDS011;6325;49.540;8.364;2022-11-03T04:24:45;5.35;;;3.28;;
12519;SDS011;6325;49.540;8.364;2022-11-03T04:27:22;5.37;;;3.43;;
12519;SDS011;6325;49.540;8.364;2022-11-03T04:29:56;3.92;;;2.85;;
12519;SDS011;6325;49.540;8.364;2022-11-03T04:32:27;4.43;;;3.30;;
12519;SDS011;6325;49.540;8.364;2022-11-03T04:34:56;4.32;;;3.15;;
12519;SDS011;6325;49.540;8.364;2022-11-03T04:37:24;3.65;;;2.88;;
12519;SDS011;6325;49.540;8.364;2022-11-03T04:39:54;3.58;;;2.72;;
12519;SDS011;6325;49.540;8.364;2022-11-03T04:42:24;3.40;;;2.78;;
12519;SDS011;6325;49.540;8.364;2022-11-03T04:44:51;2.65;;;2.38;;
12519;SDS011;6325;49.540;8.364;2022-11-03T04:47:20;2.88;;;2.50;;
12519;SDS011;6325;49.540;8.364;2022-11-03T04:49:47;3.22;;;2.67;;
12519;SDS011;6325;49.540;8.364;2022-11-03T04:52:15;4.90;;;3.00;;
12519;SDS011;6325;49.540;8.364;2022-11-03T04:54:45;3.22;;;2.90;;
12519;SDS011;6325;49.540;8.364;2022-11-03T04:57:13;4.72;;;3.00;;
12519;SDS011;6325;49.540;8.364;2022-11-03T04:59:42;5.28;;;3.40;;
12519;SDS011;6325;49.540;8.364;2022-11-03T05:02:12;5.18;;;3.30;;
12519;SDS011;6325;49.540;8.364;2022-11-03T05:04:42;5.13;;;3.53;;
12519;SDS011;6325;49.540;8.364;2022-11-03T05:07:12;5.55;;;3.50;;
12519;SDS011;6325;49.540;8.364;2022-11-03T05:09:48;3.80;;;3.25;;
12519;SDS011;6325;49.540;8.364;2022-11-03T05:12:16;3.08;;;2.78;;
12519;SDS011;6325;49.540;8.364;2022-11-03T05:14:44;3.28;;;2.80;;
12519;SDS011;6325;49.540;8.364;2022-11-03T05:17:16;3.20;;;2.90;;
12519;SDS011;6325;49.540;8.364;2022-11-03T05:19:49;3.30;;;2.78;;
12519;SDS011;6325;49.540;8.364;2022-11-03T05:22:20;2.90;;;2.60;;
12519;SDS011;6325;49.540;8.364;2022-11-03T05:24:51;2.97;;;2.50;;
12519;SDS011;6325;49.540;8.364;2022-11-03T05:27:25;2.70;;;2.50;;
12519;SDS011;6325;49.540;8.364;2022-11-03T05:29:53;4.15;;;2.88;;
12519;SDS011;6325;49.540;8.364;2022-11-03T05:32:25;3.63;;;2.95;;
12519;SDS011;6325;49.540;8.364;2022-11-03T05:34:56;4.25;;;3.00;;
12519;SDS011;6325;49.540;8.364;2022-11-03T05:37:25;4.93;;;3.50;;
12519;SDS011;6325;49.540;8.364;2022-11-03T05:39:54;3.58;;;2.95;;
12519;SDS011;6325;49.540;8.364;2022-11-03T05:42:27;4.68;;;3.30;;
12519;SDS011;6325;49.540;8.364;2022-11-03T05:45:00;5.93;;;3.53;;
12519;SDS011;6325;49.540;8.364;2022-11-03T05:47:30;3.97;;;3.05;;
12519;SDS011;6325;49.540;8.364;2022-11-03T05:50:10;3.63;;;3.10;;
12519;SDS011;6325;49.540;8.364;2022-11-03T05:52:42;4.50;;;3.20;;
12519;SDS011;6325;49.540;8.364;2022-11-03T05:55:16;5.85;;;3.42;;
12519;SDS011;6325;49.540;8.364;2022-11-03T05:57:50;3.10;;;2.80;;
12519;SDS011;6325;49.540;8.364;2022-11-03T06:00:23;3.75;;;2.90;;
12519;SDS011;6325;49.540;8.364;2022-11-03T06:02:53;3.28;;;2.67;;
12519;SDS011;6325;49.540;8.364;2022-11-03T06:05:22;3.73;;;2.67;;
12519;SDS011;6325;49.540;8.364;2022-11-03T06:07:52;5.00;;;3.47;;
12519;SDS011;6325;49.540;8.364;2022-11-03T06:10:23;6.00;;;3.58;;
12519;SDS011;6325;49.540;8.364;2022-11-03T06:12:55;3.28;;;3.03;;
12519;SDS011;6325;49.540;8.364;2022-11-03T06:15:26;3.20;;;2.90;;
12519;SDS011;6325;49.540;8.364;2022-11-03T06:17:57;3.55;;;2.92;;
12519;SDS011;6325;49.540;8.364;2022-11-03T06:20:28;4.93;;;3.28;;
12519;SDS011;6325;49.540;8.364;2022-11-03T06:22:55;3.13;;;2.83;;
12519;SDS011;6325;49.540;8.364;2022-11-03T06:25:24;3.42;;;2.47;;
12519;SDS011;6325;49.540;8.364;2022-11-03T06:27:54;3.55;;;3.10;;
12519;SDS011;6325;49.540;8.364;2022-11-03T06:30:26;3.20;;;2.90;;
12519;SDS011;6325;49.540;8.364;2022-11-03T06:32:57;2.80;;;2.60;;
12519;SDS011;6325;49.540;8.364;2022-11-03T06:35:25;2.75;;;2.55;;
12519;SDS011;6325;49.540;8.364;2022-11-03T06:37:55;3.20;;;2.70;;
12519;SDS011;6325;49.540;8.364;2022-11-03T06:40:33;3.17;;;2.80;;
12519;SDS011;6325;49.540;8.364;2022-11-03T06:43:12;2.83;;;2.63;;
12519;SDS011;6325;49.540;8.364;2022-11-03T06:45:47;3.55;;;2.80;;
12519;SDS011;6325;49.540;8.364;2022-11-03T06:48:19;3.08;;;2.78;;
12519;SDS011;6325;49.540;8.364;2022-11-03T06:50:50;3.60;;;3.17;;
12519;SDS011;6325;49.540;8.364;2022-11-03T06:53:19;3.72;;;3.30;;
12519;SDS011;6325;49.540;8.364;2022-11-03T06:55:48;6.47;;;3.90;;
12519;SDS011;6325;49.540;8.364;2022-11-03T06:58:16;4.25;;;3.53;;
12519;SDS011;6325;49.540;8.364;2022-11-03T07:00:50;4.63;;;3.80;;
12519;SDS011;6325;49.540;8.364;2022-11-03T07:03:20;4.07;;;3.60;;
12519;SDS011;6325;49.540;8.364;2022-11-03T07:05:56;4.13;;;3.53;;
12519;SDS011;6325;49.540;8.364;2022-11-03T07:08:24;4.80;;;3.33;;
12519;SDS011;6325;49.540;8.364;2022-11-03T07:10:58;3.60;;;3.10;;
12519;SDS011;6325;49.540;8.364;2022-11-03T07:13:29;4.90;;;3.73;;
12519;SDS011;6325;49.540;8.364;2022-11-03T07:15:58;3.15;;;2.85;;
12519;SDS011;6325;49.540;8.364;2022-11-03T07:18:26;2.90;;;2.60;;
12519;SDS011;6325;49.540;8.364;2022-11-03T07:20:57;3.35;;;3.03;;
12519;SDS011;6325;49.540;8.364;2022-11-03T07:23:27;3.05;;;2.70;;
12519;SDS011;6325;49.540;8.364;2022-11-03T07:25:58;2.85;;;2.65;;
12519;SDS011;6325;49.540;8.364;2022-11-03T07:28:27;3.60;;;2.90;;
12519;SDS011;6325;49.540;8.364;2022-11-03T07:30:58;3.08;;;2.78;;
12519;SDS011;6325;49.540;8.364;2022-11-03T07:33:27;3.78;;;3.00;;
12519;SDS011;6325;49.540;8.364;2022-11-03T07:35:58;3.50;;;3.20;;
12519;SDS011;6325;49.540;8.364;2022-11-03T07:38:25;4.43;;;3.55;;
12519;SDS011;6325;49.540;8.364;2022-11-03T07:40:57;5.30;;;4.80;;
12519;SDS011;6325;49.540;8.364;2022-11-03T07:43:27;6.95;;;6.10;;
12519;SDS011;6325;49.540;8.364;2022-11-03T07:45:56;5.38;;;4.88;;
12519;SDS011;6325;49.540;8.364;2022-11-03T07:48:26;5.25;;;4.60;;
12519;SDS011;6325;49.540;8.364;2022-11-03T07:50:59;8.02;;;4.30;;
12519;SDS011;6325;49.540;8.364;2022-11-03T07:53:38;3.92;;;3.42;;
12519;SDS011;6325;49.540;8.364;2022-11-03T07:56:12;6.50;;;4.25;;
12519;SDS011;6325;49.540;8.364;2022-11-03T07:58:43;4.82;;;3.65;;
12519;SDS011;6325;49.540;8.364;2022-11-03T08:01:24;5.95;;;3.60;;
12519;SDS011;6325;49.540;8.364;2022-11-03T08:03:54;3.42;;;3.10;;
12519;SDS011;6325;49.540;8.364;2022-11-03T08:06:27;4.27;;;3.20;;
12519;SDS011;6325;49.540;8.364;2022-11-03T08:08:54;4.03;;;3.38;;
12519;SDS011;6325;49.540;8.364;2022-11-03T08:11:23;3.50;;;3.20;;
12519;SDS011;6325;49.540;8.364;2022-11-03T08:13:50;4.18;;;3.78;;
12519;SDS011;6325;49.540;8.364;2022-11-03T08:16:18;3.15;;;2.92;;
12519;SDS011;6325;49.540;8.364;2022-11-03T08:18:45;4.22;;;3.08;;
12519;SDS011;6325;49.540;8.364;2022-11-03T08:21:13;3.63;;;3.33;;
12519;SDS011;6325;49.540;8.364;2022-11-03T08:23:42;5.85;;;3.65;;
12519;SDS011;6325;49.540;8.364;2022-11-03T08:26:10;5.43;;;4.15;;
12519;SDS011;6325;49.540;8.364;2022-11-03T08:28:40;5.68;;;4.10;;
12519;SDS011;6325;49.540;8.364;2022-11-03T08:31:07;4.72;;;3.35;;
12519;SDS011;6325;49.540;8.364;2022-11-03T08:33:34;5.03;;;3.65;;
12519;SDS011;6325;49.540;8.364;2022-11-03T08:36:02;5.05;;;3.80;;
12519;SDS011;6325;49.540;8.364;2022-11-03T08:38:30;4.97;;;3.50;;
12519;SDS011;6325;49.540;8.364;2022-11-03T08:40:58;6.72;;;4.10;;
12519;SDS011;6325;49.540;8.364;2022-11-03T08:43:26;5.70;;;3.80;;
12519;SDS011;6325;49.540;8.364;2022-11-03T08:45:53;5.78;;;3.60;;
12519;SDS011;6325;49.540;8.364;2022-11-03T08:48:20;6.75;;;4.15;;
12519;SDS011;6325;49.540;8.364;2022-11-03T08:50:48;5.00;;;3.80;;
12519;SDS011;6325;49.540;8.364;2022-11-03T08:53:18;4.00;;;3.60;;
12519;SDS011;6325;49.540;8.364;2022-11-03T08:55:45;5.13;;;3.95;;
12519;SDS011;6325;49.540;8.364;2022-11-03T08:58:13;5.68;;;3.80;;
12519;SDS011;6325;49.540;8.364;2022-11-03T09:00:40;6.47;;;3.97;;
12519;SDS011;6325;49.540;8.364;2022-11-03T09:03:07;4.55;;;3.60;;
12519;SDS011;6325;49.540;8.364;2022-11-03T09:05:34;5.90;;;3.80;;
12519;SDS011;6325;49.540;8.364;2022-11-03T09:08:02;5.38;;;3.97;;
12519;SDS011;6325;49.540;8.364;2022-11-03T09:10:29;5.55;;;3.65;;
12519;SDS011;6325;49.540;8.364;2022-11-03T09:12:56;4.38;;;3.65;;
12519;SDS011;6325;49.540;8.364;2022-11-03T09:15:24;3.90;;;3.45;;
12519;SDS011;6325;49.540;8.364;2022-11-03T09:17:51;5.88;;;3.92;;
12519;SDS011;6325;49.540;8.364;2022-11-03T09:20:19;5.78;;;3.72;;
12519;SDS011;6325;49.540;8.364;2022-11-03T09:22:46;5.45;;;3.67;;
12519;SDS011;6325;49.540;8.364;2022-11-03T09:25:13;5.47;;;3.55;;
12519;SDS011;6325;49.540;8.364;2022-11-03T09:27:40;6.65;;;4.18;;
12519;SDS011;6325;49.540;8.364;2022-11-03T09:30:07;6.13;;;3.78;;
12519;SDS011;6325;49.540;8.364;2022-11-03T13:20:34;3.47;;;2.40;;
12519;SDS011;6325;49.540;8.364;2022-11-03T17:32:04;4.75;;;3.75;;
12519;SDS011;6325;49.540;8.364;2022-11-03T17:34:35;3.90;;;3.50;;
12519;SDS011;6325;49.540;8.364;2022-11-03T17:37:03;4.20;;;3.60;;
12519;SDS011;6325;49.540;8.364;2022-11-03T17:39:31;3.30;;;3.00;;
12519;SDS011;6325;49.540;8.364;2022-11-03T17:42:11;3.55;;;3.25;;
12519;SDS011;6325;49.540;8.364;2022-11-03T17:44:41;3.80;;;3.38;;
12519;SDS011;6325;49.540;8.364;2022-11-03T17:47:10;3.10;;;2.90;;
12519;SDS011;6325;49.540;8.364;2022-11-03T17:49:37;3.50;;;3.30;;
12519;SDS011;6325;49.540;8.364;2022-11-03T17:52:04;2.90;;;2.70;;
12519;SDS011;6325;49.540;8.364;2022-11-03T17:54:35;3.00;;;2.70;;
12519;SDS011;6325;49.540;8.364;2022-11-03T17:57:02;2.92;;;2.72;;
12519;SDS011;6325;49.540;8.364;2022-11-03T17:59:29;3.70;;;3.40;;
12519;SDS011;6325;49.540;8.364;2022-11-03T18:01:57;3.72;;;3.38;;
12519;SDS011;6325;49.540;8.364;2022-11-03T18:04:28;3.72;;;3.40;;
12519;SDS011;6325;49.540;8.364;2022-11-03T18:06:55;4.30;;;3.83;;
12519;SDS011;6325;49.540;8.364;2022-11-03T18:09:23;4.53;;;3.60;;
12519;SDS011;6325;49.540;8.364;2022-11-03T18:11:51;4.43;;;3.80;;
12519;SDS011;6325;49.540;8.364;2022-11-03T18:14:36;4.20;;;3.78;;
12519;SDS011;6325;49.540;8.364;2022-11-03T18:17:03;8.10;;;4.47;;
12519;SDS011;6325;49.540;8.364;2022-11-03T18:19:31;5.57;;;4.40;;
12519;SDS011;6325;49.540;8.364;2022-11-03T18:22:03;6.00;;;4.38;;
12519;SDS011;6325;49.540;8.364;2022-11-03T18:24:33;6.50;;;4.50;;
12519;SDS011;6325;49.540;8.364;2022-11-03T18:27:03;4.97;;;4.00;;
12519;SDS011;6325;49.540;8.364;2022-11-03T18:29:34;4.32;;;3.65;;
12519;SDS011;6325;49.540;8.364;2022-11-03T18:32:01;3.67;;;3.37;;
12519;SDS011;6325;49.540;8.364;2022-11-03T18:34:28;4.72;;;3.85;;
12519;SDS011;6325;49.540;8.364;2022-11-03T18:36:59;4.93;;;4.03;;
12519;SDS011;6325;49.540;8.364;2022-11-03T18:39:27;4.85;;;4.22;;
12519;SDS011;6325;49.540;8.364;2022-11-03T18:41:56;5.10;;;4.20;;
12519;SDS011;6325;49.540;8.364;2022-11-03T18:44:28;4.20;;;3.80;;
12519;SDS011;6325;49.540;8.364;2022-11-03T18:53:26;7.17;;;5.07;;
12519;SDS011;6325;49.540;8.364;2022-11-03T18:56:00;7.13;;;5.30;;
12519;SDS011;6325;49.540;8.364;2022-11-03T18:58:48;5.82;;;4.90;;
12519;SDS011;6325;49.540;8.364;2022-11-03T19:01:25;5.68;;;4.75;;
12519;SDS011;6325;49.540;8.364;2022-11-03T19:04:09;5.95;;;4.80;;
12519;SDS011;6325;49.540;8.364;2022-11-03T19:06:58;4.93;;;4.30;;
12519;SDS011;6325;49.540;8.364;2022-11-03T19:09:34;6.60;;;5.05;;
12519;SDS011;6325;49.540;8.364;2022-11-03T19:12:04;5.87;;;5.03;;
12519;SDS011;6325;49.540;8.364;2022-11-03T19:14:38;6.75;;;4.75;;
12519;SDS011;6325;49.540;8.364;2022-11-03T19:17:14;6.28;;;4.95;;
12519;SDS011;6325;49.540;8.364;2022-11-03T19:19:52;5.82;;;4.75;;
12519;SDS011;6325;49.540;8.364;2022-11-03T19:22:22;5.45;;;4.88;;
12519;SDS011;6325;49.540;8.364;2022-11-03T19:24:50;5.53;;;4.80;;
12519;SDS011;6325;49.540;8.364;2022-11-03T19:27:18;4.85;;;4.40;;
12519;SDS011;6325;49.540;8.364;2022-11-03T19:29:48;5.30;;;4.80;;
12519;SDS011;6325;49.540;8.364;2022-11-03T19:32:18;6.57;;;4.97;;
12519;SDS011;6325;49.540;8.364;2022-11-03T19:34:49;7.30;;;5.40;;
12519;SDS011;6325;49.540;8.364;2022-11-03T19:37:21;6.25;;;5.10;;
12519;SDS011;6325;49.540;8.364;2022-11-03T19:39:51;8.13;;;5.53;;
12519;SDS011;6325;49.540;8.364;2022-11-03T19:42:25;8.38;;;4.80;;
12519;SDS011;6325;49.540;8.364;2022-11-03T19:45:03;4.85;;;4.20;;
12519;SDS011;6325;49.540;8.364;2022-11-03T19:47:52;4.88;;;4.40;;
12519;SDS011;6325;49.540;8.364;2022-11-03T19:51:05;5.07;;;4.35;;
12519;SDS011;6325;49.540;8.364;2022-11-03T19:54:05;5.82;;;4.88;;
12519;SDS011;6325;49.540;8.364;2022-11-03T19:56:56;4.38;;;3.97;;
12519;SDS011;6325;49.540;8.364;2022-11-03T19:59:55;6.93;;;5.03;;
12519;SDS011;6325;49.540;8.364;2022-11-03T20:20:33;5.45;;;4.93;;
12519;SDS011;6325;49.540;8.364;2022-11-03T21:26:32;8.23;;;5.00;;
12519;SDS011;6325;49.540;8.364;2022-11-03T21:29:36;5.63;;;4.60;;
12519;SDS011;6325;49.540;8.364;2022-11-03T21:32:18;5.50;;;4.25;;
12519;SDS011;6325;49.540;8.364;2022-11-03T21:35:18;4.72;;;3.92;;
12519;SDS011;6325;49.540;8.364;2022-11-03T21:37:58;5.47;;;3.80;;
12519;SDS011;6325;49.540;8.364;2022-11-03T21:44:06;4.35;;;3.90;;
12519;SDS011;6325;49.540;8.364;2022-11-03T21:47:04;4.28;;;3.83;;
12519;SDS011;6325;49.540;8.364;2022-11-03T21:49:57;5.45;;;4.10;;
12519;SDS011;6325;49.540;8.364;2022-11-03T21:52:45;4.53;;;3.90;;
12519;SDS011;6325;49.540;8.364;2022-11-03T21:56:24;4.32;;;3.95;;
12519;SDS011;6325;49.540;8.364;2022-11-03T21:58:49;5.63;;;4.50;;
12519;SDS011;6325;49.540;8.364;2022-11-03T22:01:40;4.90;;;4.40;;
12519;SDS011;6325;49.540;8.364;2022-11-03T22:04:14;5.20;;;4.67;;
12519;SDS011;6325;49.540;8.364;2022-11-03T22:06:45;4.80;;;4.30;;
12519;SDS011;6325;49.540;8.364;2022-11-03T22:09:27;5.40;;;4.57;;
12519;SDS011;6325;49.540;8.364;2022-11-03T22:12:15;4.90;;;4.40;;
12519;SDS011;6325;49.540;8.364;2022-11-03T22:18:14;5.70;;;4.65;;
12519;SDS011;6325;49.540;8.364;2022-11-03T22:20:45;5.40;;;4.90;;
12519;SDS011;6325;49.540;8.364;2022-11-03T22:23:32;5.68;;;5.10;;
12519;SDS011;6325;49.540;8.364;2022-11-03T22:26:22;5.97;;;5.35;;
12519;SDS011;6325;49.540;8.364;2022-11-03T22:29:06;5.60;;;5.10;;
12519;SDS011;6325;49.540;8.364;2022-11-03T22:31:57;5.60;;;5.10;;
12519;SDS011;6325;49.540;8.364;2022-11-03T22:34:31;5.78;;;5.18;;
12519;SDS011;6325;49.540;8.364;2022-11-03T22:37:19;6.20;;;5.43;;
12519;SDS011;6325;49.540;8.364;2022-11-03T22:39:46;5.10;;;4.60;;
12519;SDS011;6325;49.540;8.364;2022-11-03T22:42:30;5.40;;;4.90;;
12519;SDS011;6325;49.540;8.364;2022-11-03T22:45:14;4.85;;;4.43;;
12519;SDS011;6325;49.540;8.364;2022-11-03T22:48:01;5.13;;;4.60;;
12519;SDS011;6325;49.540;8.364;2022-11-03T22:53:06;5.45;;;4.20;;
12519;SDS011;6325;49.540;8.364;2022-11-03T22:55:47;4.45;;;4.05;;
12519;SDS011;6325;49.540;8.364;2022-11-03T22:58:17;4.15;;;3.83;;
12519;SDS011;6325;49.540;8.364;2022-11-03T23:00:44;5.20;;;4.68;;
12519;SDS011;6325;49.540;8.364;2022-11-03T23:03:11;4.63;;;4.13;;
12519;SDS011;6325;49.540;8.364;2022-11-03T23:05:43;4.25;;;3.80;;
12519;SDS011;6325;49.540;8.364;2022-11-03T23:08:10;3.53;;;3.22;;
12519;SDS011;6325;49.540;8.364;2022-11-03T23:10:37;3.70;;;3.30;;
12519;SDS011;6325;49.540;8.364;2022-11-03T23:13:10;2.40;;;2.20;;
12519;SDS011;6325;49.540;8.364;2022-11-03T23:16:00;3.28;;;2.25;;
12519;SDS011;6325;49.540;8.364;2022-11-03T23:19:04;1.83;;;1.73;;
12519;SDS011;6325;49.540;8.364;2022-11-03T23:22:20;1.60;;;1.50;;
12519;SDS011;6325;49.540;8.364;2022-11-03T23:24:57;1.27;;;1.25;;
12519;SDS011;6325;49.540;8.364;2022-11-03T23:27:46;1.40;;;1.20;;
12519;SDS011;6325;49.540;8.364;2022-11-03T23:30:33;1.00;;;1.00;;
12519;SDS011;6325;49.540;8.364;2022-11-03T23:33:07;1.10;;;1.00;;
12519;SDS011;6325;49.540;8.364;2022-11-03T23:35:34;1.10;;;1.00;;
12519;SDS011;6325;49.540;8.364;2022-11-03T23:38:13;0.93;;;0.90;;
12519;SDS011;6325;49.540;8.364;2022-11-03T23:40:52;0.90;;;0.90;;
12519;SDS011;6325;49.540;8.364;2022-11-03T23:43:23;1.10;;;1.10;;
12519;SDS011;6325;49.540;8.364;2022-11-03T23:46:14;0.90;;;0.90;;
12519;SDS011;6325;49.540;8.364;2022-11-03T23:49:05;0.80;;;0.80;;
12519;SDS011;6325;49.540;8.364;2022-11-03T23:51:53;2.60;;;0.90;;
12519;SDS011;6325;49.540;8.364;2022-11-03T23:57:25;1.75;;;0.98;;
